createdAt,value
2023-05-13T00:01:51.169Z,32.58
2023-05-13T00:04:21.074Z,32.49
2023-05-13T00:06:50.921Z,32.44
2023-05-13T00:09:20.727Z,32.42
2023-05-13T00:11:43.518Z,32.42
2023-05-13T00:14:13.575Z,32.40
2023-05-13T00:16:44.324Z,32.41
2023-05-13T00:19:14.582Z,32.41
2023-05-13T00:21:44.806Z,32.36
2023-05-13T00:24:14.666Z,32.37
2023-05-13T00:26:44.515Z,32.40
2023-05-13T00:29:14.527Z,32.43
2023-05-13T00:31:44.547Z,32.45
2023-05-13T00:34:14.770Z,32.43
2023-05-13T00:36:44.708Z,32.41
2023-05-13T00:39:14.824Z,32.35
2023-05-13T00:41:43.383Z,32.26
2023-05-13T00:44:03.616Z,32.22
2023-05-13T00:46:36.583Z,32.24
2023-05-13T00:48:56.673Z,32.27
2023-05-13T00:51:26.976Z,32.23
2023-05-13T00:53:57.596Z,32.24
2023-05-13T00:56:28.866Z,32.25
2023-05-13T00:58:59.258Z,32.26
2023-05-13T01:01:15.367Z,32.26
2023-05-13T01:03:47.756Z,32.27
2023-05-13T01:06:20.512Z,32.27
2023-05-13T01:08:56.600Z,32.25
2023-05-13T01:11:29.693Z,32.24
2023-05-13T01:14:05.018Z,32.22
2023-05-13T01:16:41.688Z,32.19
2023-05-13T01:19:35.281Z,32.16
2023-05-13T01:21:45.199Z,32.16
2023-05-13T01:24:08.522Z,32.14
2023-05-13T01:26:29.479Z,32.13
2023-05-13T01:28:59.457Z,32.11
2023-05-13T01:31:20.135Z,32.08
2023-05-13T01:33:50.201Z,32.03
2023-05-13T01:36:20.705Z,32.00
2023-05-13T01:38:51.300Z,31.98
2023-05-13T01:41:21.358Z,31.95
2023-05-13T01:43:51.218Z,31.92
2023-05-13T01:46:21.715Z,31.89
2023-05-13T01:48:52.304Z,31.84
2023-05-13T01:51:22.297Z,31.77
2023-05-13T01:53:52.595Z,31.70
2023-05-13T01:56:23.404Z,31.66
2023-05-13T01:58:53.182Z,31.62
2023-05-13T02:01:23.155Z,31.57
2023-05-13T02:03:53.333Z,31.51
2023-05-13T02:06:13.400Z,31.46
2023-05-13T02:08:43.118Z,31.39
2023-05-13T02:11:13.106Z,31.33
2023-05-13T02:13:42.838Z,31.27
2023-05-13T02:16:14.129Z,31.23
2023-05-13T02:18:43.963Z,31.18
2023-05-13T02:21:13.877Z,31.13
2023-05-13T02:23:43.685Z,31.09
2023-05-13T02:26:13.508Z,31.04
2023-05-13T02:28:43.748Z,30.99
2023-05-13T02:31:13.680Z,30.96
2023-05-13T02:33:43.549Z,30.92
2023-05-13T02:36:13.516Z,30.88
2023-05-13T02:38:43.275Z,30.85
2023-05-13T02:41:05.820Z,30.82
2023-05-13T02:43:38.128Z,30.77
2023-05-13T02:46:07.928Z,30.72
2023-05-13T02:48:31.063Z,30.66
2023-05-13T02:51:01.781Z,30.62
2023-05-13T02:53:31.885Z,30.58
2023-05-13T02:56:02.435Z,30.50
2023-05-13T02:58:32.623Z,30.44
2023-05-13T03:01:04.876Z,30.37
2023-05-13T03:03:35.222Z,30.30
2023-05-13T03:06:05.797Z,30.21
2023-05-13T03:08:35.929Z,30.12
2023-05-13T03:11:06.501Z,30.04
2023-05-13T03:13:39.313Z,29.98
2023-05-13T03:16:09.852Z,29.90
2023-05-13T03:18:40.481Z,29.83
2023-05-13T03:21:10.339Z,29.75
2023-05-13T03:23:40.483Z,29.68
2023-05-13T03:26:10.356Z,29.59
2023-05-13T03:28:40.220Z,29.53
2023-05-13T03:31:10.664Z,29.44
2023-05-13T03:33:40.711Z,29.37
2023-05-13T03:36:11.921Z,29.29
2023-05-13T03:38:41.722Z,29.20
2023-05-13T03:41:11.758Z,29.10
2023-05-13T03:43:41.556Z,29.02
2023-05-13T03:46:11.809Z,28.93
2023-05-13T03:48:41.726Z,28.85
2023-05-13T03:51:11.597Z,28.74
2023-05-13T03:53:41.606Z,28.63
2023-05-13T03:56:10.900Z,28.52
2023-05-13T03:58:41.084Z,28.42
2023-05-13T04:01:11.865Z,28.32
2023-05-13T04:03:32.283Z,28.22
2023-05-13T04:06:02.145Z,28.13
2023-05-13T04:08:32.519Z,28.03
2023-05-13T04:11:02.759Z,27.93
2023-05-13T04:13:32.699Z,27.83
2023-05-13T04:16:02.606Z,27.72
2023-05-13T04:18:32.666Z,27.61
2023-05-13T04:21:02.793Z,27.49
2023-05-13T04:23:32.862Z,27.39
2023-05-13T04:26:02.761Z,27.29
2023-05-13T04:28:32.953Z,27.20
2023-05-13T04:31:03.960Z,27.16
2023-05-13T04:33:34.781Z,27.14
2023-05-13T04:36:04.738Z,27.09
2023-05-13T04:38:35.225Z,27.02
2023-05-13T04:41:08.601Z,26.95
2023-05-13T04:43:24.634Z,26.87
2023-05-13T04:45:39.404Z,26.82
2023-05-13T04:48:09.974Z,26.75
2023-05-13T04:50:40.134Z,26.69
2023-05-13T04:53:10.291Z,26.62
2023-05-13T04:55:40.270Z,26.55
2023-05-13T04:57:53.485Z,26.48
2023-05-13T05:00:23.513Z,26.37
2023-05-13T05:02:53.621Z,26.24
2023-05-13T05:05:24.419Z,26.10
2023-05-13T05:07:47.153Z,26.00
2023-05-13T05:10:17.364Z,25.90
2023-05-13T05:12:44.412Z,25.79
2023-05-13T05:15:16.763Z,25.68
2023-05-13T05:17:47.456Z,25.59
2023-05-13T05:20:17.978Z,25.51
2023-05-13T05:22:43.146Z,25.44
2023-05-13T05:24:55.441Z,25.37
2023-05-13T05:27:16.398Z,25.27
2023-05-13T05:29:46.247Z,25.16
2023-05-13T05:32:16.393Z,25.07
2023-05-13T05:34:46.473Z,24.97
2023-05-13T05:37:16.544Z,24.90
2023-05-13T05:39:46.361Z,24.88
2023-05-13T05:42:09.665Z,24.86
2023-05-13T05:44:39.468Z,24.82
2023-05-13T05:46:59.336Z,24.78
2023-05-13T05:49:29.201Z,24.71
2023-05-13T05:51:59.183Z,24.62
2023-05-13T05:54:29.153Z,24.52
2023-05-13T05:56:58.965Z,24.43
2023-05-13T05:59:29.048Z,24.34
2023-05-13T06:01:47.135Z,24.24
2023-05-13T06:04:17.585Z,24.14
2023-05-13T06:06:47.684Z,24.05
2023-05-13T06:09:18.095Z,23.94
2023-05-13T06:11:48.026Z,23.85
2023-05-13T06:14:16.463Z,23.80
2023-05-13T06:16:46.174Z,23.70
2023-05-13T06:19:15.210Z,23.62
2023-05-13T06:21:46.393Z,23.53
2023-05-13T06:24:16.253Z,23.42
2023-05-13T06:26:46.138Z,23.31
2023-05-13T06:29:15.986Z,23.21
2023-05-13T06:31:46.054Z,23.13
2023-05-13T06:34:06.299Z,23.06
2023-05-13T06:36:36.480Z,22.96
2023-05-13T06:39:06.559Z,22.88
2023-05-13T06:41:37.608Z,22.81
2023-05-13T06:44:07.726Z,22.71
2023-05-13T06:46:40.181Z,22.60
2023-05-13T06:49:10.342Z,22.53
2023-05-13T06:51:40.227Z,22.45
2023-05-13T06:54:49.258Z,22.38
2023-05-13T06:56:45.502Z,22.30
2023-05-13T06:59:15.423Z,22.22
2023-05-13T07:01:45.282Z,22.14
2023-05-13T07:04:05.654Z,22.07
2023-05-13T07:06:35.762Z,22.00
2023-05-13T07:09:08.353Z,21.94
2023-05-13T07:11:39.034Z,21.88
2023-05-13T07:14:09.139Z,21.83
2023-05-13T07:16:39.175Z,21.78
2023-05-13T07:19:09.158Z,21.73
2023-05-13T07:21:39.251Z,21.67
2023-05-13T07:24:09.279Z,21.62
2023-05-13T07:26:39.991Z,21.56
2023-05-13T07:29:09.945Z,21.48
2023-05-13T07:31:40.269Z,21.41
2023-05-13T07:34:09.122Z,21.34
2023-05-13T07:36:39.403Z,21.29
2023-05-13T07:39:10.514Z,21.23
2023-05-13T07:41:41.852Z,21.17
2023-05-13T07:44:14.130Z,21.08
2023-05-13T07:46:43.886Z,21.00
2023-05-13T07:49:13.856Z,20.94
2023-05-13T07:51:43.818Z,20.88
2023-05-13T07:54:14.244Z,20.80
2023-05-13T07:56:34.408Z,20.73
2023-05-13T07:59:04.540Z,20.66
2023-05-13T08:01:34.699Z,20.58
2023-05-13T08:03:54.857Z,20.53
2023-05-13T08:06:18.146Z,20.47
2023-05-13T08:08:47.953Z,20.39
2023-05-13T08:11:18.026Z,20.30
2023-05-13T08:13:32.752Z,20.25
2023-05-13T08:16:05.788Z,20.19
2023-05-13T08:18:36.214Z,20.12
2023-05-13T08:21:06.642Z,20.04
2023-05-13T08:23:40.840Z,19.98
2023-05-13T08:26:12.620Z,19.92
2023-05-13T08:28:42.845Z,19.87
2023-05-13T08:31:05.247Z,19.80
2023-05-13T08:33:35.567Z,19.72
2023-05-13T08:36:05.375Z,19.67
2023-05-13T08:38:32.014Z,19.62
2023-05-13T08:40:54.860Z,19.56
2023-05-13T08:43:18.305Z,19.51
2023-05-13T08:45:49.923Z,19.45
2023-05-13T08:48:20.270Z,19.37
2023-05-13T08:50:50.361Z,19.32
2023-05-13T08:53:21.219Z,19.24
2023-05-13T08:55:51.571Z,19.19
2023-05-13T08:58:21.469Z,19.11
2023-05-13T09:00:44.404Z,19.04
2023-05-13T09:03:15.445Z,18.96
2023-05-13T09:05:46.312Z,18.89
2023-05-13T09:08:10.444Z,18.82
2023-05-13T09:10:40.648Z,18.79
2023-05-13T09:13:10.452Z,18.73
2023-05-13T09:15:31.717Z,18.67
2023-05-13T09:20:47.905Z,18.51
2023-05-13T09:23:18.294Z,18.47
2023-05-13T09:25:47.859Z,18.43
2023-05-13T09:28:18.409Z,18.38
2023-05-13T09:30:57.738Z,18.33
2023-05-13T09:33:11.744Z,18.27
2023-05-13T09:35:42.061Z,18.22
2023-05-13T09:38:19.786Z,18.15
2023-05-13T09:40:57.028Z,18.08
2023-05-13T09:43:27.675Z,18.02
2023-05-13T09:46:03.624Z,17.96
2023-05-13T09:48:39.094Z,17.91
2023-05-13T09:51:33.177Z,17.84
2023-05-13T09:54:18.313Z,17.76
2023-05-13T09:56:48.957Z,17.67
2023-05-13T10:02:13.961Z,17.52
2023-05-13T10:04:43.863Z,17.48
2023-05-13T10:07:16.377Z,17.43
2023-05-13T10:09:38.431Z,17.40
2023-05-13T10:11:51.189Z,17.36
2023-05-13T10:14:08.043Z,17.30
2023-05-13T10:16:38.166Z,17.24
2023-05-13T10:19:09.372Z,17.18
2023-05-13T10:21:40.574Z,17.15
2023-05-13T10:24:03.234Z,17.08
2023-05-13T10:26:26.456Z,17.02
2023-05-13T10:28:39.939Z,16.96
2023-05-13T10:31:10.518Z,16.91
2023-05-13T10:33:44.398Z,16.90
2023-05-13T10:36:35.821Z,16.86
2023-05-13T10:39:06.976Z,16.85
2023-05-13T10:41:53.003Z,16.83
2023-05-13T10:44:43.627Z,16.81
2023-05-13T10:47:16.248Z,16.80
2023-05-13T10:49:53.090Z,16.80
2023-05-13T10:52:25.381Z,16.77
2023-05-13T10:55:34.538Z,16.75
2023-05-13T10:57:39.183Z,16.73
2023-05-13T11:00:21.171Z,16.71
2023-05-13T11:02:42.625Z,16.68
2023-05-13T11:05:12.870Z,16.65
2023-05-13T11:07:43.235Z,16.59
2023-05-13T11:10:25.759Z,16.55
2023-05-13T11:12:48.590Z,16.52
2023-05-13T11:15:28.828Z,16.53
2023-05-13T11:17:58.886Z,16.54
2023-05-13T11:20:29.857Z,16.51
2023-05-13T11:23:04.834Z,16.45
2023-05-13T11:25:35.060Z,16.42
2023-05-13T11:27:57.608Z,16.38
2023-05-13T11:31:02.853Z,16.32
2023-05-13T11:33:22.366Z,16.28
2023-05-13T11:35:42.260Z,16.27
2023-05-13T11:38:34.908Z,16.24
2023-05-13T11:41:04.171Z,16.20
2023-05-13T11:43:34.892Z,16.17
2023-05-13T11:45:55.757Z,16.14
2023-05-13T11:48:25.381Z,16.12
2023-05-13T11:51:12.138Z,16.10
2023-05-13T11:53:42.014Z,16.06
2023-05-13T11:56:18.176Z,16.03
2023-05-13T11:58:40.745Z,16.00
2023-05-13T12:01:15.771Z,15.99
2023-05-13T12:03:50.860Z,15.95
2023-05-13T12:06:23.881Z,15.91
2023-05-13T12:08:56.436Z,15.85
2023-05-13T12:11:26.636Z,15.79
2023-05-13T12:13:59.657Z,15.75
2023-05-13T12:16:29.744Z,15.71
2023-05-13T12:19:09.496Z,15.64
2023-05-13T12:21:43.002Z,15.60
2023-05-13T12:24:22.198Z,15.56
2023-05-13T12:26:57.181Z,15.54
2023-05-13T12:29:20.974Z,15.50
2023-05-13T12:32:05.657Z,15.43
2023-05-13T12:34:39.885Z,15.38
2023-05-13T12:36:49.841Z,15.32
2023-05-13T12:39:25.054Z,15.28
2023-05-13T12:41:45.361Z,15.23
2023-05-13T12:44:16.949Z,15.19
2023-05-13T12:46:55.478Z,15.16
2023-05-13T12:49:25.471Z,15.12
2023-05-13T12:51:45.583Z,15.09
2023-05-13T12:54:18.158Z,15.03
2023-05-13T12:56:34.372Z,15.01
2023-05-13T12:59:06.777Z,14.98
2023-05-13T13:01:47.326Z,14.94
2023-05-13T13:04:11.747Z,14.90
2023-05-13T13:06:25.275Z,14.89
2023-05-13T13:08:47.898Z,14.86
2023-05-13T13:11:19.687Z,14.84
2023-05-13T13:13:49.817Z,14.83
2023-05-13T13:16:19.904Z,14.82
2023-05-13T13:19:01.770Z,14.82
2023-05-13T13:21:29.038Z,14.82
2023-05-13T13:23:59.454Z,14.83
2023-05-13T13:26:20.345Z,14.84
2023-05-13T13:28:42.398Z,14.88
2023-05-13T13:31:15.473Z,14.88
2023-05-13T13:33:51.070Z,14.94
2023-05-13T13:36:17.925Z,14.98
2023-05-13T13:38:47.779Z,15.02
2023-05-13T13:41:18.279Z,15.06
2023-05-13T13:43:47.317Z,15.10
2023-05-13T13:46:13.350Z,15.15
2023-05-13T13:48:37.256Z,15.21
2023-05-13T13:51:07.527Z,15.27
2023-05-13T13:53:37.514Z,15.32
2023-05-13T13:55:57.714Z,15.35
2023-05-13T13:58:27.691Z,15.43
2023-05-13T14:01:18.189Z,15.50
2023-05-13T14:03:48.449Z,15.56
2023-05-13T14:06:11.666Z,15.61
2023-05-13T14:08:44.478Z,15.66
2023-05-13T14:11:17.780Z,15.69
2023-05-13T14:13:30.783Z,15.73
2023-05-13T14:16:00.828Z,15.76
2023-05-13T14:18:30.773Z,15.80
2023-05-13T14:21:25.232Z,15.87
2023-05-13T14:23:38.526Z,15.94
2023-05-13T14:26:11.863Z,16.02
2023-05-13T14:28:44.656Z,16.10
2023-05-13T14:31:17.661Z,16.18
2023-05-13T14:33:47.582Z,16.26
2023-05-13T14:36:18.172Z,16.38
2023-05-13T14:38:43.099Z,16.48
2023-05-13T14:41:08.810Z,16.60
2023-05-13T14:43:28.571Z,16.69
2023-05-13T14:45:58.219Z,16.77
2023-05-13T14:48:28.395Z,16.88
2023-05-13T14:50:49.799Z,16.98
2023-05-13T14:53:10.057Z,17.09
2023-05-13T14:55:40.265Z,17.23
2023-05-13T14:58:14.162Z,17.36
2023-05-13T15:00:27.845Z,17.46
2023-05-13T15:02:52.346Z,17.59
2023-05-13T15:05:22.262Z,17.74
2023-05-13T15:07:52.049Z,17.89
2023-05-13T15:10:13.355Z,18.03
2023-05-13T15:14:58.720Z,18.32
2023-05-13T15:17:32.109Z,18.49
2023-05-13T15:20:03.644Z,18.66
2023-05-13T15:22:20.534Z,18.78
2023-05-13T15:24:40.801Z,18.93
2023-05-13T15:27:03.735Z,19.05
2023-05-13T15:29:34.140Z,19.19
2023-05-13T15:32:04.423Z,19.33
2023-05-13T15:34:37.350Z,19.46
2023-05-13T15:37:09.360Z,19.61
2023-05-13T15:39:41.802Z,19.76
2023-05-13T15:42:13.036Z,19.88
2023-05-13T15:44:43.313Z,20.05
2023-05-13T15:47:16.262Z,20.17
2023-05-13T15:49:46.109Z,20.27
2023-05-13T15:52:16.892Z,20.39
2023-05-13T15:54:46.738Z,20.53
2023-05-13T15:57:27.019Z,20.67
2023-05-13T15:59:57.231Z,20.84
2023-05-13T16:02:37.705Z,21.03
2023-05-13T16:05:07.947Z,21.23
2023-05-13T16:07:18.398Z,21.32
2023-05-13T16:09:48.419Z,21.43
2023-05-13T16:12:18.393Z,21.50
2023-05-13T16:14:39.738Z,21.68
2023-05-13T16:17:02.531Z,21.82
2023-05-13T16:19:32.313Z,21.97
2023-05-13T16:22:24.331Z,22.11
2023-05-13T16:24:54.159Z,22.29
2023-05-13T16:27:08.263Z,22.42
2023-05-13T16:29:23.967Z,22.53
2023-05-13T16:31:54.371Z,22.71
2023-05-13T16:34:28.726Z,22.83
2023-05-13T16:36:59.296Z,22.97
2023-05-13T16:39:21.964Z,23.14
2023-05-13T16:41:55.369Z,23.32
2023-05-13T16:44:38.740Z,23.47
2023-05-13T16:47:10.166Z,23.63
2023-05-13T16:49:40.913Z,23.78
2023-05-13T16:51:51.017Z,23.97
2023-05-13T16:55:30.721Z,24.21
2023-05-13T16:57:05.718Z,24.46
2023-05-13T16:59:35.724Z,24.63
2023-05-13T17:02:07.051Z,24.78
2023-05-13T17:04:35.752Z,24.92
2023-05-13T17:07:06.013Z,25.04
2023-05-13T17:09:35.806Z,25.17
2023-05-13T17:11:57.101Z,25.26
2023-05-13T17:14:27.122Z,25.38
2023-05-13T17:16:57.181Z,25.51
2023-05-13T17:19:26.983Z,25.63
2023-05-13T17:21:36.906Z,25.75
2023-05-13T17:24:07.231Z,25.90
2023-05-13T17:26:27.339Z,26.05
2023-05-13T17:28:37.218Z,26.11
2023-05-13T17:31:07.522Z,26.23
2023-05-13T17:33:37.725Z,26.35
2023-05-13T17:36:07.990Z,26.51
2023-05-13T17:38:22.542Z,26.62
2023-05-13T17:40:42.510Z,26.68
2023-05-13T17:42:52.964Z,26.79
2023-05-13T17:45:13.913Z,26.96
2023-05-13T17:47:27.192Z,27.12
2023-05-13T17:49:57.118Z,27.29
2023-05-13T17:52:26.994Z,27.42
2023-05-13T17:54:46.960Z,27.51
2023-05-13T17:57:17.617Z,27.63
2023-05-13T17:59:37.532Z,27.77
2023-05-13T18:02:08.077Z,27.93
2023-05-13T18:04:22.200Z,28.10
2023-05-13T18:06:35.125Z,28.24
2023-05-13T18:09:04.999Z,28.40
2023-05-13T18:11:34.872Z,28.51
2023-05-13T18:14:04.960Z,28.68
2023-05-13T18:16:35.022Z,28.85
2023-05-13T18:18:45.126Z,29.00
2023-05-13T18:20:55.011Z,29.16
2023-05-13T18:23:07.644Z,29.32
2023-05-13T18:25:48.490Z,29.51
2023-05-13T18:28:22.361Z,29.71
2023-05-13T18:30:52.266Z,29.90
2023-05-13T18:33:05.458Z,30.03
2023-05-13T18:35:21.008Z,30.05
2023-05-13T18:37:51.004Z,30.05
2023-05-13T18:40:21.222Z,30.11
2023-05-13T18:42:39.050Z,30.05
2023-05-13T18:45:09.718Z,29.97
2023-05-13T18:47:30.189Z,30.00
2023-05-13T18:49:43.240Z,30.05
2023-05-13T18:51:53.065Z,30.11
2023-05-13T18:54:22.873Z,30.28
2023-05-13T18:56:35.809Z,30.48
2023-05-13T18:59:05.679Z,30.69
2023-05-13T19:01:16.552Z,30.85
2023-05-13T19:03:46.742Z,30.98
2023-05-13T19:06:00.234Z,31.06
2023-05-13T19:08:19.266Z,31.11
2023-05-13T19:10:48.215Z,31.07
2023-05-13T19:13:20.826Z,30.98
2023-05-13T19:15:50.753Z,30.92
2023-05-13T19:18:13.432Z,30.94
2023-05-13T19:20:27.008Z,30.96
2023-05-13T19:22:57.202Z,31.04
2023-05-13T19:25:27.348Z,31.23
2023-05-13T19:27:57.471Z,31.42
2023-05-13T19:30:26.304Z,31.62
2023-05-13T19:32:38.977Z,31.74
2023-05-13T19:34:51.995Z,31.86
2023-05-13T19:37:13.585Z,31.93
2023-05-13T19:39:33.593Z,32.03
2023-05-13T19:41:57.749Z,32.25
2023-05-13T19:44:28.994Z,32.49
2023-05-13T19:46:50.095Z,32.63
2023-05-13T19:49:10.119Z,32.84
2023-05-13T19:51:40.064Z,33.03
2023-05-13T19:54:01.035Z,33.09
2023-05-13T19:56:24.106Z,33.24
2023-05-13T19:58:44.074Z,33.35
2023-05-13T20:01:03.968Z,33.30
2023-05-13T20:03:33.899Z,33.30
2023-05-13T20:05:54.919Z,33.32
2023-05-13T20:08:08.671Z,33.42
2023-05-13T20:10:28.606Z,33.58
2023-05-13T20:12:58.447Z,33.63
2023-05-13T20:15:28.696Z,33.62
2023-05-13T20:17:48.890Z,33.61
2023-05-13T20:20:01.776Z,33.64
2023-05-13T20:22:31.711Z,33.70
2023-05-13T20:25:01.511Z,33.73
2023-05-13T20:27:31.309Z,33.75
2023-05-13T20:30:01.181Z,33.86
2023-05-13T20:32:31.149Z,33.94
2023-05-13T20:35:00.977Z,34.08
2023-05-13T20:37:21.133Z,34.11
2023-05-13T20:39:53.081Z,34.11
2023-05-13T20:42:06.891Z,34.22
2023-05-13T20:44:18.083Z,34.33
2023-05-13T20:46:37.341Z,34.39
2023-05-13T20:48:50.710Z,34.46
2023-05-13T20:51:20.441Z,34.44
2023-05-13T20:53:30.337Z,34.43
2023-05-13T20:56:00.271Z,34.41
2023-05-13T20:58:13.360Z,34.33
2023-05-13T21:00:34.415Z,34.27
2023-05-13T21:02:56.982Z,34.22
2023-05-13T21:05:26.731Z,34.30
2023-05-13T21:07:56.624Z,34.41
2023-05-13T23:11:56.846Z,34.17
2023-05-13T23:14:06.884Z,34.21
2023-05-13T23:16:16.096Z,34.25
2023-05-13T23:18:25.953Z,34.31
2023-05-13T23:20:35.257Z,34.35
2023-05-13T23:22:44.987Z,34.36
2023-05-13T23:24:57.889Z,34.41
2023-05-13T23:27:07.961Z,34.44
2023-05-13T23:29:17.356Z,34.43
2023-05-13T23:31:26.872Z,34.45
2023-05-13T23:33:36.400Z,34.49
2023-05-13T23:35:53.310Z,34.48
2023-05-13T23:38:03.089Z,34.36
2023-05-13T23:40:16.270Z,34.21
2023-05-13T23:42:37.194Z,34.01
2023-05-13T23:45:07.658Z,33.93
2023-05-13T23:47:17.775Z,33.93
2023-05-13T23:49:47.584Z,33.95
2023-05-13T23:51:56.881Z,33.98
2023-05-13T23:54:09.139Z,34.04
2023-05-13T23:56:18.419Z,34.08
2023-05-13T23:58:27.655Z,34.11
